GEC8401 WMKP-OPLA
Flight info
| Callsign | GEC8401 |
|---|---|
| Flight time | 4h 52m |
| Altitude | 32000 |
| Route | GOGOM1A GOGOM Y351 DUBAX R325 PUT L759 TATUX/N0486F340 L759 KKJ J1 MEMID L760 DPN A589 ASARI A466 SULOM |
| Aircraft | MD11/H-SDE1E2E3FGHIJ2J3J4J5M1RWXY/LB1D1 |
Departure
| Time | 2026-04-26 15:03 |
|---|---|
| Airport | Penang International Airport (WMKP) |
Arrival
| Time | 2026-04-26 19:56 |
|---|---|
| Airport | Allama Iqbal International Airport (OPLA) |
| Time | Latitude | Longitude | Altitude | Speed | Heading |
|---|---|---|---|---|---|
| 2026-04-26 14:50 | 5.28982 | 100.26441 | 29 ft | 0 kts | 312° |
| 2026-04-26 14:56 | 5.28977 | 100.26446 | 30 ft | 4 kts | 313° |
| 2026-04-26 14:57 | 5.28958 | 100.26465 | 30 ft | 4 kts | 315° |
| 2026-04-26 14:57 | 5.28944 | 100.26482 | 30 ft | 3 kts | 279° |
| 2026-04-26 14:57 | 5.28941 | 100.26501 | 29 ft | 4 kts | 247° |
| 2026-04-26 14:57 | 5.28955 | 100.26521 | 30 ft | 4 kts | 223° |
| 2026-04-26 14:58 | 5.28965 | 100.26530 | 30 ft | 0 kts | 221° |
| 2026-04-26 15:00 | 5.28958 | 100.26524 | 30 ft | 3 kts | 221° |
| 2026-04-26 15:00 | 5.28927 | 100.26496 | 30 ft | 9 kts | 221° |
| 2026-04-26 15:01 | 5.28858 | 100.26489 | 30 ft | 12 kts | 157° |
| 2026-04-26 15:01 | 5.28799 | 100.26542 | 30 ft | 12 kts | 134° |
| 2026-04-26 15:01 | 5.28753 | 100.26568 | 28 ft | 8 kts | 163° |
| 2026-04-26 15:01 | 5.28690 | 100.26591 | 31 ft | 10 kts | 147° |
| 2026-04-26 15:02 | 5.28645 | 100.26653 | 31 ft | 11 kts | 111° |
| 2026-04-26 15:02 | 5.28637 | 100.26695 | 30 ft | 2 kts | 78° |
| 2026-04-26 15:02 | 5.28660 | 100.26727 | 30 ft | 10 kts | 44° |
| 2026-04-26 15:02 | 5.28803 | 100.26856 | 32 ft | 63 kts | 42° |
| 2026-04-26 15:03 | 5.29350 | 100.27354 | 31 ft | 146 kts | 42° |
| 2026-04-26 15:03 | 5.30255 | 100.28174 | 208 ft | 191 kts | 42° |
| 2026-04-26 15:03 | 5.31277 | 100.29082 | 829 ft | 192 kts | 40° |
| 2026-04-26 15:03 | 5.32266 | 100.29924 | 1172 ft | 187 kts | 40° |
| 2026-04-26 15:04 | 5.33249 | 100.30806 | 1459 ft | 199 kts | 41° |
| 2026-04-26 15:04 | 5.34379 | 100.31826 | 1773 ft | 238 kts | 41° |
| 2026-04-26 15:04 | 5.35780 | 100.32767 | 2611 ft | 245 kts | 23° |
| 2026-04-26 15:04 | 5.37455 | 100.33200 | 3296 ft | 263 kts | 1° |
| 2026-04-26 15:05 | 5.39324 | 100.32888 | 3852 ft | 279 kts | 342° |
| 2026-04-26 15:05 | 5.39949 | 100.32683 | 4166 ft | 280 kts | 341° |
| 2026-04-26 15:05 | 5.43029 | 100.31544 | 5677 ft | 287 kts | 339° |
| 2026-04-26 15:05 | 5.44917 | 100.30828 | 6567 ft | 291 kts | 339° |
| 2026-04-26 15:06 | 5.46829 | 100.30112 | 7398 ft | 295 kts | 340° |
| 2026-04-26 15:06 | 5.48770 | 100.29389 | 8175 ft | 300 kts | 340° |
| 2026-04-26 15:06 | 5.50747 | 100.28658 | 8965 ft | 304 kts | 340° |
| 2026-04-26 15:06 | 5.52749 | 100.27923 | 9708 ft | 309 kts | 341° |
| 2026-04-26 15:07 | 5.57043 | 100.26357 | 10248 ft | 354 kts | 341° |
| 2026-04-26 15:07 | 5.59391 | 100.25503 | 10605 ft | 370 kts | 341° |
| 2026-04-26 15:07 | 5.61768 | 100.24635 | 11333 ft | 375 kts | 341° |
| 2026-04-26 15:08 | 5.64237 | 100.23734 | 12044 ft | 380 kts | 341° |
| 2026-04-26 15:08 | 5.66738 | 100.22822 | 12735 ft | 384 kts | 341° |
| 2026-04-26 15:08 | 5.69263 | 100.21902 | 13423 ft | 388 kts | 342° |
| 2026-04-26 15:08 | 5.71869 | 100.21169 | 14053 ft | 390 kts | 350° |
| 2026-04-26 15:09 | 5.74556 | 100.20722 | 14688 ft | 393 kts | 354° |
| 2026-04-26 15:09 | 5.77279 | 100.20393 | 15314 ft | 396 kts | 355° |
| 2026-04-26 15:09 | 5.80033 | 100.20095 | 15895 ft | 399 kts | 355° |
| 2026-04-26 15:09 | 5.82804 | 100.19797 | 16475 ft | 402 kts | 355° |
| 2026-04-26 15:10 | 5.85597 | 100.19486 | 17032 ft | 405 kts | 355° |
| 2026-04-26 15:10 | 5.87455 | 100.19273 | 17386 ft | 407 kts | 355° |
| 2026-04-26 15:10 | 5.91236 | 100.18832 | 18083 ft | 411 kts | 355° |
| 2026-04-26 15:10 | 5.94083 | 100.18495 | 18584 ft | 414 kts | 355° |
| 2026-04-26 15:11 | 5.96956 | 100.18151 | 19052 ft | 417 kts | 355° |
| 2026-04-26 15:11 | 5.99847 | 100.17806 | 19512 ft | 420 kts | 355° |
| 2026-04-26 15:11 | 6.02757 | 100.17459 | 19946 ft | 423 kts | 355° |
| 2026-04-26 15:11 | 6.05655 | 100.17113 | 20372 ft | 426 kts | 355° |
| 2026-04-26 15:12 | 6.08608 | 100.16760 | 20808 ft | 429 kts | 355° |
| 2026-04-26 15:12 | 6.11578 | 100.16405 | 21239 ft | 432 kts | 355° |
| 2026-04-26 15:12 | 6.14573 | 100.16047 | 21655 ft | 434 kts | 355° |
| 2026-04-26 15:12 | 6.17578 | 100.15688 | 22000 ft | 437 kts | 355° |
| 2026-04-26 15:13 | 6.20608 | 100.15328 | 22397 ft | 439 kts | 355° |
| 2026-04-26 15:13 | 6.23656 | 100.14952 | 22726 ft | 442 kts | 354° |
| 2026-04-26 15:13 | 6.26722 | 100.14585 | 23126 ft | 445 kts | 355° |
| 2026-04-26 15:13 | 6.29804 | 100.14222 | 23556 ft | 446 kts | 355° |
| 2026-04-26 15:14 | 6.32901 | 100.13855 | 23820 ft | 450 kts | 355° |
| 2026-04-26 15:14 | 6.36023 | 100.13477 | 24208 ft | 453 kts | 354° |
| 2026-04-26 15:14 | 6.39143 | 100.12965 | 24607 ft | 456 kts | 349° |
| 2026-04-26 15:14 | 6.41179 | 100.12410 | 24888 ft | 459 kts | 343° |
| 2026-04-26 15:15 | 6.44124 | 100.11124 | 25345 ft | 464 kts | 332° |
| 2026-04-26 15:15 | 6.46796 | 100.09285 | 25780 ft | 467 kts | 321° |
| 2026-04-26 15:15 | 6.49165 | 100.07007 | 26104 ft | 473 kts | 314° |
| 2026-04-26 15:15 | 6.52056 | 100.03700 | 26616 ft | 477 kts | 312° |
| 2026-04-26 15:16 | 6.53508 | 100.01972 | 26901 ft | 479 kts | 312° |
| 2026-04-26 15:16 | 6.56374 | 99.98590 | 27435 ft | 482 kts | 313° |
| 2026-04-26 15:16 | 6.57861 | 99.96869 | 27701 ft | 483 kts | 313° |
| 2026-04-26 15:16 | 6.60092 | 99.94329 | 28083 ft | 485 kts | 313° |
| 2026-04-26 15:17 | 6.62349 | 99.91797 | 28468 ft | 487 kts | 314° |
| 2026-04-26 15:17 | 6.63856 | 99.90118 | 28719 ft | 489 kts | 314° |
| 2026-04-26 15:17 | 6.66921 | 99.86710 | 29191 ft | 492 kts | 314° |
| 2026-04-26 15:17 | 6.69219 | 99.84159 | 29620 ft | 492 kts | 314° |
| 2026-04-26 15:18 | 6.71514 | 99.81613 | 30093 ft | 491 kts | 314° |
| 2026-04-26 15:18 | 6.73806 | 99.79066 | 30542 ft | 490 kts | 314° |
| 2026-04-26 15:18 | 6.76062 | 99.76558 | 30908 ft | 489 kts | 314° |
| 2026-04-26 15:18 | 6.78338 | 99.74026 | 31278 ft | 487 kts | 314° |
| 2026-04-26 15:19 | 6.80608 | 99.71499 | 31647 ft | 486 kts | 314° |
| 2026-04-26 15:19 | 6.82883 | 99.68968 | 31813 ft | 486 kts | 314° |
| 2026-04-26 15:19 | 6.87446 | 99.63886 | 31861 ft | 492 kts | 314° |
| 2026-04-26 15:20 | 6.92036 | 99.58773 | 31861 ft | 492 kts | 314° |
| 2026-04-26 15:20 | 6.96638 | 99.53650 | 31861 ft | 493 kts | 314° |
| 2026-04-26 15:21 | 7.01252 | 99.48548 | 31862 ft | 493 kts | 314° |
| 2026-04-26 15:21 | 7.05945 | 99.43519 | 31861 ft | 493 kts | 315° |
| 2026-04-26 15:22 | 7.10661 | 99.38511 | 31856 ft | 493 kts | 315° |
| 2026-04-26 15:22 | 7.15374 | 99.33498 | 31865 ft | 493 kts | 315° |
| 2026-04-26 15:23 | 7.20085 | 99.28474 | 31870 ft | 493 kts | 315° |
| 2026-04-26 15:23 | 7.24792 | 99.23452 | 31870 ft | 493 kts | 315° |
| 2026-04-26 15:24 | 7.29499 | 99.18426 | 31866 ft | 493 kts | 315° |
| 2026-04-26 15:24 | 7.34180 | 99.13430 | 31871 ft | 493 kts | 315° |
| 2026-04-26 15:25 | 7.38100 | 99.09243 | 31870 ft | 493 kts | 315° |
| 2026-04-26 15:25 | 7.43604 | 99.03365 | 31872 ft | 493 kts | 315° |
| 2026-04-26 15:26 | 7.48310 | 98.98337 | 31865 ft | 493 kts | 315° |
| 2026-04-26 15:26 | 7.53019 | 98.93303 | 31883 ft | 493 kts | 315° |
| 2026-04-26 15:27 | 7.57728 | 98.88265 | 31878 ft | 493 kts | 315° |
| 2026-04-26 15:27 | 7.62430 | 98.83230 | 31878 ft | 493 kts | 315° |
| 2026-04-26 15:28 | 7.67102 | 98.78225 | 31878 ft | 493 kts | 315° |
| 2026-04-26 15:28 | 7.71813 | 98.73184 | 31878 ft | 494 kts | 315° |
| 2026-04-26 15:29 | 7.76507 | 98.68123 | 31878 ft | 493 kts | 314° |
| 2026-04-26 15:30 | 7.85884 | 98.58008 | 31879 ft | 493 kts | 314° |
| 2026-04-26 15:30 | 7.90576 | 98.52951 | 31879 ft | 493 kts | 314° |
| 2026-04-26 15:31 | 7.97614 | 98.45364 | 31879 ft | 493 kts | 314° |
| 2026-04-26 15:32 | 8.03857 | 98.38628 | 31889 ft | 493 kts | 314° |
| 2026-04-26 15:32 | 8.09374 | 98.32801 | 31887 ft | 493 kts | 317° |
| 2026-04-26 15:33 | 8.14383 | 98.28069 | 31886 ft | 492 kts | 319° |
| 2026-04-26 15:33 | 8.19452 | 98.23418 | 31887 ft | 493 kts | 319° |
| 2026-04-26 15:34 | 8.24513 | 98.18746 | 31888 ft | 493 kts | 319° |
| 2026-04-26 15:34 | 8.29524 | 98.14090 | 31882 ft | 493 kts | 319° |
| 2026-04-26 15:35 | 8.34564 | 98.09399 | 31879 ft | 493 kts | 319° |
| 2026-04-26 15:35 | 8.39602 | 98.04713 | 31878 ft | 492 kts | 319° |
| 2026-04-26 15:36 | 8.44647 | 98.00015 | 31879 ft | 492 kts | 318° |
| 2026-04-26 15:36 | 8.49690 | 97.95320 | 31879 ft | 493 kts | 319° |
| 2026-04-26 15:37 | 8.54751 | 97.90630 | 31878 ft | 493 kts | 319° |
| 2026-04-26 15:37 | 8.59809 | 97.85948 | 31878 ft | 493 kts | 319° |
| 2026-04-26 15:38 | 8.64877 | 97.81258 | 31874 ft | 493 kts | 319° |
| 2026-04-26 15:38 | 8.69940 | 97.76570 | 31869 ft | 493 kts | 319° |
| 2026-04-26 15:39 | 8.74964 | 97.71913 | 31864 ft | 494 kts | 319° |
| 2026-04-26 15:39 | 8.79208 | 97.67976 | 31860 ft | 494 kts | 319° |
| 2026-04-26 15:40 | 8.85095 | 97.62513 | 31859 ft | 494 kts | 319° |
| 2026-04-26 15:40 | 8.90147 | 97.57786 | 31859 ft | 494 kts | 319° |
| 2026-04-26 15:41 | 8.95189 | 97.53051 | 31850 ft | 494 kts | 319° |
| 2026-04-26 15:41 | 9.00200 | 97.48343 | 31854 ft | 494 kts | 319° |
| 2026-04-26 15:42 | 9.05245 | 97.43606 | 31854 ft | 494 kts | 319° |
| 2026-04-26 15:42 | 9.10292 | 97.38867 | 31855 ft | 495 kts | 319° |
| 2026-04-26 15:43 | 9.15342 | 97.34124 | 31849 ft | 495 kts | 319° |
| 2026-04-26 15:44 | 9.22907 | 97.27009 | 31854 ft | 495 kts | 319° |
| 2026-04-26 15:44 | 9.30439 | 97.19925 | 31837 ft | 495 kts | 319° |
| 2026-04-26 15:45 | 9.38006 | 97.12803 | 31835 ft | 495 kts | 319° |
| 2026-04-26 15:46 | 9.45576 | 97.05673 | 31850 ft | 495 kts | 318° |
| 2026-04-26 15:46 | 9.49762 | 97.01720 | 31836 ft | 495 kts | 318° |
| 2026-04-26 15:47 | 9.58153 | 96.93809 | 31835 ft | 495 kts | 318° |
| 2026-04-26 15:48 | 9.63198 | 96.89049 | 31846 ft | 495 kts | 318° |
| 2026-04-26 15:48 | 9.68240 | 96.84290 | 31835 ft | 495 kts | 318° |
| 2026-04-26 15:49 | 9.73284 | 96.79525 | 31846 ft | 495 kts | 318° |
| 2026-04-26 15:49 | 9.78331 | 96.74759 | 31835 ft | 496 kts | 318° |
| 2026-04-26 15:50 | 9.83380 | 96.69989 | 31854 ft | 495 kts | 318° |
| 2026-04-26 15:50 | 9.88419 | 96.65225 | 31835 ft | 495 kts | 318° |
| 2026-04-26 15:51 | 9.93421 | 96.60492 | 31852 ft | 495 kts | 318° |
| 2026-04-26 15:51 | 9.98467 | 96.55717 | 31834 ft | 496 kts | 318° |
| 2026-04-26 15:52 | 10.03510 | 96.50942 | 31831 ft | 495 kts | 318° |
| 2026-04-26 15:52 | 10.08540 | 96.46171 | 31833 ft | 494 kts | 317° |
| 2026-04-26 15:53 | 10.13262 | 96.41082 | 31832 ft | 495 kts | 312° |
| 2026-04-26 15:53 | 10.17751 | 96.35771 | 31833 ft | 496 kts | 311° |
| 2026-04-26 15:54 | 10.22232 | 96.30450 | 31833 ft | 496 kts | 311° |
| 2026-04-26 15:54 | 10.26710 | 96.25191 | 31832 ft | 496 kts | 311° |
| 2026-04-26 15:55 | 10.31231 | 96.19904 | 31833 ft | 496 kts | 311° |
| 2026-04-26 15:55 | 10.35750 | 96.14615 | 31833 ft | 496 kts | 311° |
| 2026-04-26 15:56 | 10.40270 | 96.09322 | 31833 ft | 496 kts | 311° |
| 2026-04-26 15:56 | 10.44791 | 96.04021 | 31831 ft | 496 kts | 311° |
| 2026-04-26 15:57 | 10.49306 | 95.98727 | 31831 ft | 495 kts | 311° |
| 2026-04-26 15:57 | 10.53791 | 95.93466 | 31832 ft | 495 kts | 311° |
| 2026-04-26 15:58 | 10.58301 | 95.88169 | 31832 ft | 495 kts | 311° |
| 2026-04-26 15:58 | 10.62810 | 95.82874 | 31831 ft | 495 kts | 311° |
| 2026-04-26 15:59 | 10.67308 | 95.77582 | 31833 ft | 494 kts | 311° |
| 2026-04-26 15:59 | 10.71807 | 95.72287 | 31847 ft | 494 kts | 311° |
| 2026-04-26 16:00 | 10.76303 | 95.67000 | 31833 ft | 494 kts | 311° |
| 2026-04-26 16:00 | 10.80795 | 95.61718 | 31831 ft | 493 kts | 311° |
| 2026-04-26 16:01 | 10.85278 | 95.56440 | 31833 ft | 493 kts | 311° |
| 2026-04-26 16:01 | 10.89758 | 95.51163 | 31831 ft | 492 kts | 311° |
| 2026-04-26 16:02 | 10.94205 | 95.45922 | 31833 ft | 492 kts | 311° |
| 2026-04-26 16:02 | 10.98678 | 95.40651 | 31832 ft | 492 kts | 311° |
| 2026-04-26 16:03 | 11.03143 | 95.35383 | 31831 ft | 491 kts | 311° |
| 2026-04-26 16:03 | 11.06853 | 95.31005 | 31832 ft | 491 kts | 311° |
| 2026-04-26 16:04 | 11.11312 | 95.25741 | 31835 ft | 491 kts | 311° |
| 2026-04-26 16:04 | 11.15767 | 95.20478 | 31847 ft | 491 kts | 311° |
| 2026-04-26 16:05 | 11.20223 | 95.15207 | 31835 ft | 490 kts | 311° |
| 2026-04-26 16:05 | 11.24672 | 95.09934 | 31851 ft | 490 kts | 311° |
| 2026-04-26 16:06 | 11.29119 | 95.04673 | 31834 ft | 490 kts | 311° |
| 2026-04-26 16:06 | 11.33574 | 94.99400 | 31850 ft | 490 kts | 311° |
| 2026-04-26 16:07 | 11.38025 | 94.94129 | 31834 ft | 490 kts | 311° |
| 2026-04-26 16:07 | 11.42444 | 94.88889 | 31845 ft | 490 kts | 311° |
| 2026-04-26 16:08 | 11.46891 | 94.83615 | 31835 ft | 490 kts | 311° |
| 2026-04-26 16:08 | 11.51336 | 94.78343 | 31850 ft | 490 kts | 311° |
| 2026-04-26 16:09 | 11.55782 | 94.73067 | 31835 ft | 490 kts | 311° |
| 2026-04-26 16:09 | 11.60232 | 94.67786 | 31850 ft | 490 kts | 311° |
| 2026-04-26 16:10 | 11.64669 | 94.62511 | 31848 ft | 490 kts | 311° |
| 2026-04-26 16:10 | 11.69077 | 94.57270 | 31848 ft | 490 kts | 311° |
| 2026-04-26 16:11 | 11.73518 | 94.51987 | 31849 ft | 490 kts | 311° |
| 2026-04-26 16:11 | 11.78166 | 94.46914 | 31855 ft | 490 kts | 315° |
| 2026-04-26 16:12 | 11.83055 | 94.42063 | 31848 ft | 490 kts | 316° |
| 2026-04-26 16:12 | 11.90404 | 94.34813 | 31853 ft | 490 kts | 316° |
| 2026-04-26 16:13 | 11.95284 | 94.29953 | 31849 ft | 490 kts | 316° |
| 2026-04-26 16:13 | 12.00122 | 94.25121 | 31849 ft | 489 kts | 316° |
| 2026-04-26 16:14 | 12.04999 | 94.20251 | 31853 ft | 489 kts | 316° |
| 2026-04-26 16:15 | 12.12294 | 94.12952 | 31849 ft | 489 kts | 316° |
| 2026-04-26 16:15 | 12.17165 | 94.08080 | 31848 ft | 489 kts | 316° |
| 2026-04-26 16:16 | 12.24471 | 94.00796 | 31850 ft | 489 kts | 316° |
| 2026-04-26 16:16 | 12.29339 | 93.96003 | 31855 ft | 489 kts | 316° |
| 2026-04-26 16:17 | 12.34251 | 93.91175 | 31852 ft | 489 kts | 316° |
| 2026-04-26 16:17 | 12.39156 | 93.86350 | 31853 ft | 489 kts | 316° |
| 2026-04-26 16:18 | 12.46505 | 93.79111 | 31853 ft | 489 kts | 316° |
| 2026-04-26 16:19 | 12.53851 | 93.71870 | 31856 ft | 488 kts | 316° |
| 2026-04-26 16:20 | 12.61182 | 93.64636 | 31859 ft | 488 kts | 316° |
| 2026-04-26 16:20 | 12.68474 | 93.57436 | 31862 ft | 488 kts | 316° |
| 2026-04-26 16:21 | 12.73360 | 93.52605 | 31860 ft | 487 kts | 316° |
| 2026-04-26 16:21 | 12.78236 | 93.47783 | 31858 ft | 486 kts | 316° |
| 2026-04-26 16:22 | 12.83107 | 93.42964 | 31859 ft | 486 kts | 316° |
| 2026-04-26 16:22 | 12.87969 | 93.38144 | 31864 ft | 486 kts | 316° |
| 2026-04-26 16:23 | 12.92827 | 93.33326 | 31858 ft | 486 kts | 315° |
| 2026-04-26 16:23 | 12.97684 | 93.28513 | 31862 ft | 486 kts | 315° |
| 2026-04-26 16:24 | 13.02539 | 93.23696 | 31861 ft | 485 kts | 315° |
| 2026-04-26 16:24 | 13.07363 | 93.18913 | 31856 ft | 485 kts | 315° |
| 2026-04-26 16:25 | 13.12212 | 93.14098 | 31857 ft | 485 kts | 315° |
| 2026-04-26 16:25 | 13.17062 | 93.09280 | 31858 ft | 485 kts | 315° |
| 2026-04-26 16:26 | 13.21120 | 93.05248 | 31863 ft | 484 kts | 315° |
| 2026-04-26 16:26 | 13.26753 | 92.99651 | 31857 ft | 484 kts | 315° |
| 2026-04-26 16:27 | 13.31589 | 92.94835 | 31860 ft | 484 kts | 315° |
| 2026-04-26 16:27 | 13.36429 | 92.90015 | 31863 ft | 484 kts | 315° |
| 2026-04-26 16:28 | 13.41274 | 92.85191 | 31857 ft | 484 kts | 315° |
| 2026-04-26 16:28 | 13.46077 | 92.80398 | 31855 ft | 484 kts | 315° |
| 2026-04-26 16:29 | 13.50902 | 92.75577 | 31862 ft | 484 kts | 315° |
| 2026-04-26 16:29 | 13.55729 | 92.70757 | 31862 ft | 484 kts | 315° |
| 2026-04-26 16:30 | 13.60552 | 92.65942 | 31860 ft | 483 kts | 315° |
| 2026-04-26 16:30 | 13.65371 | 92.61128 | 31858 ft | 483 kts | 315° |
| 2026-04-26 16:31 | 13.70188 | 92.56311 | 31862 ft | 483 kts | 315° |
| 2026-04-26 16:31 | 13.74999 | 92.51497 | 31863 ft | 483 kts | 315° |
| 2026-04-26 16:32 | 13.78999 | 92.47492 | 31864 ft | 482 kts | 315° |
| 2026-04-26 16:32 | 13.84589 | 92.41893 | 31858 ft | 482 kts | 315° |
| 2026-04-26 16:33 | 13.89425 | 92.37048 | 31859 ft | 482 kts | 315° |
| 2026-04-26 16:33 | 13.94183 | 92.32246 | 31854 ft | 482 kts | 314° |
| 2026-04-26 16:34 | 13.98886 | 92.27326 | 31858 ft | 482 kts | 313° |
| 2026-04-26 16:34 | 14.03562 | 92.22386 | 31858 ft | 481 kts | 313° |
| 2026-04-26 16:35 | 14.08240 | 92.17452 | 31859 ft | 481 kts | 313° |
| 2026-04-26 16:35 | 14.12925 | 92.12519 | 31858 ft | 481 kts | 313° |
| 2026-04-26 16:36 | 14.17607 | 92.07589 | 31858 ft | 481 kts | 313° |
| 2026-04-26 16:36 | 14.22283 | 92.02662 | 31858 ft | 481 kts | 313° |
| 2026-04-26 16:37 | 14.26984 | 91.97747 | 31861 ft | 481 kts | 314° |
| 2026-04-26 16:37 | 14.31702 | 91.92909 | 31859 ft | 481 kts | 314° |
| 2026-04-26 16:38 | 14.36463 | 91.88043 | 31857 ft | 481 kts | 314° |
| 2026-04-26 16:38 | 14.41219 | 91.83174 | 31858 ft | 481 kts | 314° |
| 2026-04-26 16:39 | 14.45966 | 91.78309 | 31858 ft | 481 kts | 314° |
| 2026-04-26 16:39 | 14.50704 | 91.73448 | 31860 ft | 481 kts | 314° |
| 2026-04-26 16:40 | 14.55452 | 91.68568 | 31862 ft | 481 kts | 314° |
| 2026-04-26 16:40 | 14.60193 | 91.63697 | 31855 ft | 481 kts | 314° |
| 2026-04-26 16:41 | 14.64932 | 91.58825 | 31862 ft | 480 kts | 314° |
| 2026-04-26 16:41 | 14.69670 | 91.53952 | 31850 ft | 481 kts | 314° |
| 2026-04-26 16:42 | 14.74404 | 91.49078 | 31848 ft | 480 kts | 314° |
| 2026-04-26 16:42 | 14.79107 | 91.44234 | 31848 ft | 480 kts | 314° |
| 2026-04-26 16:43 | 14.83830 | 91.39364 | 31844 ft | 480 kts | 314° |
| 2026-04-26 16:43 | 14.88553 | 91.34485 | 31849 ft | 480 kts | 314° |
| 2026-04-26 16:44 | 14.93274 | 91.29604 | 31853 ft | 480 kts | 313° |
| 2026-04-26 16:44 | 14.97987 | 91.24733 | 31848 ft | 479 kts | 313° |
| 2026-04-26 16:45 | 15.02706 | 91.19858 | 31847 ft | 479 kts | 313° |
| 2026-04-26 16:45 | 15.07421 | 91.14982 | 31849 ft | 479 kts | 313° |
| 2026-04-26 16:46 | 15.12140 | 91.10101 | 31849 ft | 479 kts | 313° |
| 2026-04-26 16:46 | 15.16855 | 91.05216 | 31855 ft | 480 kts | 313° |
| 2026-04-26 16:47 | 15.21573 | 91.00328 | 31855 ft | 479 kts | 313° |
| 2026-04-26 16:47 | 15.26255 | 90.95470 | 31847 ft | 479 kts | 313° |
| 2026-04-26 16:48 | 15.30964 | 90.90584 | 31855 ft | 479 kts | 313° |
| 2026-04-26 16:48 | 15.35671 | 90.85697 | 31848 ft | 479 kts | 313° |
| 2026-04-26 16:49 | 15.40384 | 90.80798 | 31845 ft | 479 kts | 313° |
| 2026-04-26 16:49 | 15.45086 | 90.75904 | 31853 ft | 479 kts | 313° |
| 2026-04-26 16:50 | 15.49787 | 90.71004 | 31848 ft | 479 kts | 313° |
| 2026-04-26 16:50 | 15.54481 | 90.66111 | 31848 ft | 479 kts | 313° |
| 2026-04-26 16:51 | 15.58387 | 90.62041 | 31848 ft | 479 kts | 313° |
| 2026-04-26 16:51 | 15.63086 | 90.57145 | 31852 ft | 478 kts | 313° |
| 2026-04-26 16:52 | 15.66992 | 90.53074 | 31851 ft | 479 kts | 313° |
| 2026-04-26 16:52 | 15.72473 | 90.47350 | 31849 ft | 478 kts | 313° |
| 2026-04-26 16:53 | 15.77155 | 90.42453 | 31846 ft | 478 kts | 313° |
| 2026-04-26 16:53 | 15.81845 | 90.37552 | 31836 ft | 478 kts | 313° |
| 2026-04-26 16:54 | 15.86507 | 90.32676 | 31853 ft | 478 kts | 313° |
| 2026-04-26 16:54 | 15.91187 | 90.27777 | 31835 ft | 477 kts | 313° |
| 2026-04-26 16:55 | 15.95861 | 90.22881 | 31850 ft | 477 kts | 313° |
| 2026-04-26 16:55 | 16.00543 | 90.17975 | 31835 ft | 477 kts | 313° |
| 2026-04-26 16:56 | 16.07616 | 90.10680 | 31844 ft | 477 kts | 313° |
| 2026-04-26 16:57 | 16.12320 | 90.05876 | 31835 ft | 477 kts | 313° |
| 2026-04-26 16:57 | 16.19421 | 89.98612 | 31837 ft | 477 kts | 313° |
| 2026-04-26 16:58 | 16.23356 | 89.94579 | 31835 ft | 477 kts | 313° |
| 2026-04-26 16:59 | 16.31250 | 89.86480 | 31846 ft | 476 kts | 313° |
| 2026-04-26 17:00 | 16.40656 | 89.76825 | 31832 ft | 476 kts | 313° |
| 2026-04-26 17:00 | 16.47718 | 89.69563 | 31833 ft | 475 kts | 313° |
| 2026-04-26 17:01 | 16.52423 | 89.64722 | 31832 ft | 474 kts | 313° |
| 2026-04-26 17:01 | 16.57112 | 89.59887 | 31823 ft | 474 kts | 313° |
| 2026-04-26 17:02 | 16.61799 | 89.55053 | 31823 ft | 473 kts | 313° |
| 2026-04-26 17:02 | 16.66472 | 89.50218 | 31822 ft | 473 kts | 313° |
| 2026-04-26 17:03 | 16.71138 | 89.45398 | 31822 ft | 472 kts | 313° |
| 2026-04-26 17:03 | 16.75806 | 89.40577 | 31823 ft | 471 kts | 313° |
| 2026-04-26 17:04 | 16.80431 | 89.35792 | 31822 ft | 471 kts | 313° |
| 2026-04-26 17:04 | 16.85080 | 89.30984 | 31822 ft | 470 kts | 313° |
| 2026-04-26 17:05 | 16.89737 | 89.26183 | 31824 ft | 470 kts | 313° |
| 2026-04-26 17:05 | 16.94416 | 89.21411 | 31823 ft | 469 kts | 313° |
| 2026-04-26 17:06 | 16.99092 | 89.16655 | 31823 ft | 469 kts | 313° |
| 2026-04-26 17:06 | 17.03763 | 89.11894 | 31824 ft | 469 kts | 313° |
| 2026-04-26 17:07 | 17.08429 | 89.07140 | 31819 ft | 468 kts | 313° |
| 2026-04-26 17:07 | 17.13087 | 89.02385 | 31815 ft | 468 kts | 313° |
| 2026-04-26 17:08 | 17.17748 | 88.97626 | 31815 ft | 468 kts | 313° |
| 2026-04-26 17:08 | 17.22370 | 88.92900 | 31814 ft | 467 kts | 313° |
| 2026-04-26 17:09 | 17.26267 | 88.88917 | 31815 ft | 467 kts | 313° |
| 2026-04-26 17:09 | 17.31670 | 88.83391 | 31814 ft | 466 kts | 313° |
| 2026-04-26 17:10 | 17.36307 | 88.78639 | 31816 ft | 466 kts | 313° |
| 2026-04-26 17:10 | 17.40943 | 88.73884 | 31812 ft | 466 kts | 313° |
| 2026-04-26 17:11 | 17.45573 | 88.69133 | 31814 ft | 465 kts | 313° |
| 2026-04-26 17:11 | 17.50189 | 88.64382 | 31811 ft | 465 kts | 313° |
| 2026-04-26 17:12 | 17.57117 | 88.57254 | 31814 ft | 465 kts | 313° |
| 2026-04-26 17:13 | 17.64040 | 88.50131 | 31813 ft | 464 kts | 313° |
| 2026-04-26 17:14 | 17.70949 | 88.43014 | 31811 ft | 464 kts | 313° |
| 2026-04-26 17:14 | 17.77818 | 88.35928 | 31795 ft | 464 kts | 313° |
| 2026-04-26 17:15 | 17.84716 | 88.28812 | 31798 ft | 463 kts | 313° |
| 2026-04-26 17:16 | 17.89307 | 88.24067 | 31797 ft | 463 kts | 313° |
| 2026-04-26 17:16 | 17.93901 | 88.19315 | 31790 ft | 462 kts | 312° |
| 2026-04-26 17:17 | 17.98484 | 88.14572 | 31796 ft | 462 kts | 312° |
| 2026-04-26 17:17 | 18.03067 | 88.09826 | 31793 ft | 462 kts | 312° |
| 2026-04-26 17:18 | 18.07643 | 88.05082 | 31791 ft | 462 kts | 312° |
| 2026-04-26 17:18 | 18.12212 | 88.00328 | 31791 ft | 462 kts | 312° |
| 2026-04-26 17:19 | 18.19052 | 87.93218 | 31796 ft | 462 kts | 312° |
| 2026-04-26 17:19 | 18.23626 | 87.88462 | 31796 ft | 462 kts | 312° |
| 2026-04-26 17:20 | 18.27453 | 87.84482 | 31797 ft | 462 kts | 312° |
| 2026-04-26 17:20 | 18.32801 | 87.78997 | 31788 ft | 462 kts | 313° |
| 2026-04-26 17:21 | 18.37417 | 87.74303 | 31785 ft | 461 kts | 313° |
| 2026-04-26 17:21 | 18.42038 | 87.69604 | 31784 ft | 461 kts | 313° |
| 2026-04-26 17:22 | 18.46648 | 87.64905 | 31785 ft | 461 kts | 313° |
| 2026-04-26 17:22 | 18.51218 | 87.60238 | 31789 ft | 461 kts | 313° |
| 2026-04-26 17:23 | 18.55813 | 87.55545 | 31785 ft | 460 kts | 313° |
| 2026-04-26 17:23 | 18.60406 | 87.50854 | 31785 ft | 459 kts | 313° |
| 2026-04-26 17:24 | 18.64988 | 87.46167 | 31785 ft | 459 kts | 312° |
| 2026-04-26 17:24 | 18.69565 | 87.41486 | 31785 ft | 458 kts | 312° |
| 2026-04-26 17:25 | 18.74134 | 87.36803 | 31786 ft | 457 kts | 312° |
| 2026-04-26 17:25 | 18.78670 | 87.32151 | 31790 ft | 457 kts | 312° |
| 2026-04-26 17:26 | 18.83260 | 87.27442 | 31790 ft | 457 kts | 312° |
| 2026-04-26 17:26 | 18.87779 | 87.22801 | 31785 ft | 456 kts | 312° |
| 2026-04-26 17:27 | 18.92322 | 87.18119 | 31788 ft | 456 kts | 312° |
| 2026-04-26 17:27 | 18.96869 | 87.13435 | 31784 ft | 456 kts | 312° |
| 2026-04-26 17:28 | 19.01408 | 87.08765 | 31785 ft | 456 kts | 312° |
| 2026-04-26 17:28 | 19.05947 | 87.04089 | 31785 ft | 455 kts | 312° |
| 2026-04-26 17:29 | 19.09712 | 87.00206 | 31785 ft | 455 kts | 312° |
| 2026-04-26 17:29 | 19.15006 | 86.94742 | 31785 ft | 454 kts | 312° |
| 2026-04-26 17:30 | 19.19498 | 86.90104 | 31784 ft | 454 kts | 312° |
| 2026-04-26 17:30 | 19.24017 | 86.85435 | 31785 ft | 454 kts | 312° |
| 2026-04-26 17:31 | 19.28530 | 86.80764 | 31789 ft | 453 kts | 311° |
| 2026-04-26 17:31 | 19.33040 | 86.76095 | 31785 ft | 453 kts | 311° |
| 2026-04-26 17:32 | 19.37554 | 86.71421 | 31777 ft | 453 kts | 311° |
| 2026-04-26 17:32 | 19.42053 | 86.66757 | 31776 ft | 452 kts | 311° |
| 2026-04-26 17:33 | 19.46528 | 86.62114 | 31776 ft | 452 kts | 311° |
| 2026-04-26 17:34 | 19.53257 | 86.55111 | 31775 ft | 451 kts | 311° |
| 2026-04-26 17:34 | 19.57737 | 86.50442 | 31776 ft | 451 kts | 311° |
| 2026-04-26 17:35 | 19.62208 | 86.45784 | 31776 ft | 450 kts | 311° |
| 2026-04-26 17:35 | 19.66661 | 86.41109 | 31776 ft | 450 kts | 311° |
| 2026-04-26 17:36 | 19.71109 | 86.36427 | 31777 ft | 450 kts | 311° |
| 2026-04-26 17:36 | 19.75561 | 86.31744 | 31779 ft | 450 kts | 311° |
| 2026-04-26 17:37 | 19.79975 | 86.27097 | 31775 ft | 450 kts | 311° |
| 2026-04-26 17:37 | 19.84422 | 86.22409 | 31775 ft | 450 kts | 311° |
| 2026-04-26 17:38 | 19.91074 | 86.15404 | 31778 ft | 449 kts | 311° |
| 2026-04-26 17:38 | 19.95568 | 86.10779 | 31776 ft | 449 kts | 312° |
| 2026-04-26 17:39 | 20.00077 | 86.06172 | 31781 ft | 449 kts | 311° |
| 2026-04-26 17:39 | 20.04573 | 86.01550 | 31777 ft | 449 kts | 311° |
| 2026-04-26 17:40 | 20.07545 | 85.98491 | 31775 ft | 449 kts | 311° |
| 2026-04-26 17:40 | 20.13530 | 85.92326 | 31775 ft | 449 kts | 311° |
| 2026-04-26 17:41 | 20.18019 | 85.87695 | 31776 ft | 449 kts | 311° |
| 2026-04-26 17:41 | 20.21774 | 85.83821 | 31775 ft | 449 kts | 311° |
| 2026-04-26 17:42 | 20.26227 | 85.79227 | 31774 ft | 448 kts | 311° |
| 2026-04-26 17:42 | 20.30627 | 85.74478 | 31775 ft | 446 kts | 308° |
| 2026-04-26 17:43 | 20.34615 | 85.69490 | 31776 ft | 445 kts | 306° |
| 2026-04-26 17:43 | 20.38564 | 85.64400 | 31776 ft | 444 kts | 306° |
| 2026-04-26 17:44 | 20.42524 | 85.59337 | 31779 ft | 444 kts | 306° |
| 2026-04-26 17:44 | 20.46493 | 85.54287 | 31775 ft | 444 kts | 306° |
| 2026-04-26 17:45 | 20.50458 | 85.49246 | 31765 ft | 443 kts | 306° |
| 2026-04-26 17:45 | 20.54419 | 85.44205 | 31769 ft | 443 kts | 306° |
| 2026-04-26 17:46 | 20.58349 | 85.39192 | 31770 ft | 443 kts | 306° |
| 2026-04-26 17:46 | 20.62308 | 85.34144 | 31766 ft | 443 kts | 306° |
| 2026-04-26 17:47 | 20.65618 | 85.29920 | 31768 ft | 442 kts | 306° |
| 2026-04-26 17:47 | 20.70203 | 85.24062 | 31759 ft | 442 kts | 306° |
| 2026-04-26 17:48 | 20.74150 | 85.19014 | 31758 ft | 442 kts | 306° |
| 2026-04-26 17:48 | 20.78088 | 85.13975 | 31757 ft | 441 kts | 306° |
| 2026-04-26 17:49 | 20.82021 | 85.08936 | 31757 ft | 441 kts | 306° |
| 2026-04-26 17:49 | 20.85943 | 85.03893 | 31749 ft | 441 kts | 306° |
| 2026-04-26 17:50 | 20.89863 | 84.98846 | 31748 ft | 441 kts | 306° |
| 2026-04-26 17:50 | 20.93784 | 84.93802 | 31748 ft | 441 kts | 306° |
| 2026-04-26 17:51 | 20.97678 | 84.88797 | 31742 ft | 440 kts | 306° |
| 2026-04-26 17:51 | 21.01589 | 84.83762 | 31739 ft | 440 kts | 306° |
| 2026-04-26 17:52 | 21.05493 | 84.78735 | 31740 ft | 439 kts | 306° |
| 2026-04-26 17:52 | 21.09398 | 84.73703 | 31739 ft | 439 kts | 306° |
| 2026-04-26 17:53 | 21.13297 | 84.68668 | 31733 ft | 438 kts | 305° |
| 2026-04-26 17:54 | 21.19126 | 84.61140 | 31734 ft | 437 kts | 306° |
| 2026-04-26 17:54 | 21.23009 | 84.56119 | 31747 ft | 437 kts | 305° |
| 2026-04-26 17:55 | 21.26888 | 84.51095 | 31747 ft | 437 kts | 305° |
| 2026-04-26 17:55 | 21.30761 | 84.46081 | 31740 ft | 436 kts | 305° |
| 2026-04-26 17:56 | 21.34625 | 84.41069 | 31739 ft | 436 kts | 305° |
| 2026-04-26 17:57 | 21.42319 | 84.31049 | 31738 ft | 434 kts | 305° |
| 2026-04-26 17:57 | 21.46164 | 84.26042 | 31735 ft | 434 kts | 305° |
| 2026-04-26 17:58 | 21.53840 | 84.16041 | 31728 ft | 433 kts | 305° |
| 2026-04-26 17:59 | 21.59592 | 84.08553 | 31732 ft | 433 kts | 305° |
| 2026-04-26 17:59 | 21.63394 | 84.03585 | 31719 ft | 432 kts | 305° |
| 2026-04-26 18:00 | 21.67216 | 83.98595 | 31720 ft | 432 kts | 305° |
| 2026-04-26 18:00 | 21.71077 | 83.93642 | 31720 ft | 432 kts | 306° |
| 2026-04-26 18:01 | 21.74955 | 83.88698 | 31720 ft | 432 kts | 306° |
| 2026-04-26 18:01 | 21.78834 | 83.83765 | 31719 ft | 432 kts | 306° |
| 2026-04-26 18:02 | 21.82057 | 83.79655 | 31720 ft | 431 kts | 305° |
| 2026-04-26 18:02 | 21.86581 | 83.73866 | 31719 ft | 432 kts | 306° |
| 2026-04-26 18:03 | 21.90449 | 83.68913 | 31721 ft | 433 kts | 306° |
| 2026-04-26 18:03 | 21.94317 | 83.63946 | 31721 ft | 433 kts | 306° |
| 2026-04-26 18:04 | 21.98175 | 83.59020 | 31728 ft | 433 kts | 306° |
| 2026-04-26 18:05 | 22.03991 | 83.51570 | 31733 ft | 433 kts | 306° |
| 2026-04-26 18:05 | 22.07858 | 83.46568 | 31728 ft | 435 kts | 305° |
| 2026-04-26 18:06 | 22.11639 | 83.41473 | 31728 ft | 434 kts | 304° |
| 2026-04-26 18:06 | 22.15387 | 83.36362 | 31728 ft | 434 kts | 304° |
| 2026-04-26 18:07 | 22.19163 | 83.31262 | 31729 ft | 436 kts | 305° |
| 2026-04-26 18:07 | 22.23033 | 83.26211 | 31729 ft | 437 kts | 306° |
| 2026-04-26 18:08 | 22.26939 | 83.21153 | 31731 ft | 440 kts | 306° |
| 2026-04-26 18:08 | 22.30864 | 83.16051 | 31739 ft | 442 kts | 306° |
| 2026-04-26 18:09 | 22.34796 | 83.10937 | 31739 ft | 443 kts | 306° |
| 2026-04-26 18:09 | 22.38735 | 83.05808 | 31739 ft | 443 kts | 306° |
| 2026-04-26 18:10 | 22.42650 | 83.00705 | 31740 ft | 444 kts | 306° |
| 2026-04-26 18:10 | 22.46590 | 82.95563 | 31744 ft | 444 kts | 306° |
| 2026-04-26 18:11 | 22.50536 | 82.90409 | 31747 ft | 445 kts | 306° |
| 2026-04-26 18:11 | 22.54479 | 82.85251 | 31750 ft | 445 kts | 306° |
| 2026-04-26 18:12 | 22.58422 | 82.80091 | 31753 ft | 445 kts | 306° |
| 2026-04-26 18:12 | 22.62370 | 82.74921 | 31755 ft | 445 kts | 306° |
| 2026-04-26 18:13 | 22.66317 | 82.69746 | 31757 ft | 445 kts | 306° |
| 2026-04-26 18:13 | 22.70258 | 82.64569 | 31758 ft | 446 kts | 306° |
| 2026-04-26 18:14 | 22.74198 | 82.59373 | 31744 ft | 446 kts | 306° |
| 2026-04-26 18:14 | 22.78143 | 82.54171 | 31740 ft | 447 kts | 306° |
| 2026-04-26 18:15 | 22.82063 | 82.49003 | 31740 ft | 447 kts | 306° |
| 2026-04-26 18:15 | 22.86011 | 82.43798 | 31741 ft | 447 kts | 306° |
| 2026-04-26 18:16 | 22.89957 | 82.38589 | 31747 ft | 447 kts | 306° |
| 2026-04-26 18:16 | 22.95884 | 82.30759 | 31749 ft | 448 kts | 306° |
| 2026-04-26 18:17 | 22.99841 | 82.25526 | 31748 ft | 448 kts | 306° |
| 2026-04-26 18:17 | 23.03798 | 82.20286 | 31748 ft | 449 kts | 306° |
| 2026-04-26 18:18 | 23.07775 | 82.15053 | 31748 ft | 449 kts | 307° |
| 2026-04-26 18:18 | 23.11789 | 82.09904 | 31748 ft | 450 kts | 307° |
| 2026-04-26 18:19 | 23.15852 | 82.04726 | 31748 ft | 451 kts | 308° |
| 2026-04-26 18:19 | 23.19923 | 81.99528 | 31748 ft | 451 kts | 308° |
| 2026-04-26 18:20 | 23.23991 | 81.94326 | 31745 ft | 453 kts | 308° |
| 2026-04-26 18:20 | 23.26716 | 81.90836 | 31748 ft | 453 kts | 308° |
| 2026-04-26 18:21 | 23.32145 | 81.83878 | 31747 ft | 454 kts | 308° |
| 2026-04-26 18:21 | 23.36234 | 81.78628 | 31751 ft | 454 kts | 308° |
| 2026-04-26 18:22 | 23.40320 | 81.73378 | 31756 ft | 454 kts | 308° |
| 2026-04-26 18:22 | 23.44407 | 81.68122 | 31757 ft | 455 kts | 308° |
| 2026-04-26 18:23 | 23.48492 | 81.62862 | 31758 ft | 455 kts | 308° |
| 2026-04-26 18:23 | 23.52572 | 81.57604 | 31758 ft | 455 kts | 308° |
| 2026-04-26 18:24 | 23.56654 | 81.52332 | 31758 ft | 455 kts | 308° |
| 2026-04-26 18:24 | 23.60738 | 81.47053 | 31761 ft | 455 kts | 308° |
| 2026-04-26 18:25 | 23.64787 | 81.41801 | 31766 ft | 455 kts | 308° |
| 2026-04-26 18:25 | 23.68865 | 81.36505 | 31766 ft | 456 kts | 308° |
| 2026-04-26 18:26 | 23.72951 | 81.31210 | 31769 ft | 456 kts | 308° |
| 2026-04-26 18:26 | 23.77032 | 81.25916 | 31769 ft | 456 kts | 308° |
| 2026-04-26 18:27 | 23.81112 | 81.20620 | 31766 ft | 456 kts | 308° |
| 2026-04-26 18:27 | 23.85195 | 81.15313 | 31766 ft | 456 kts | 308° |
| 2026-04-26 18:28 | 23.89278 | 81.09997 | 31766 ft | 457 kts | 307° |
| 2026-04-26 18:28 | 23.92676 | 81.05570 | 31766 ft | 457 kts | 307° |
| 2026-04-26 18:29 | 23.96759 | 81.00246 | 31766 ft | 457 kts | 307° |
| 2026-04-26 18:29 | 24.01516 | 80.94039 | 31766 ft | 458 kts | 307° |
| 2026-04-26 18:30 | 24.04939 | 80.89563 | 31766 ft | 458 kts | 308° |
| 2026-04-26 18:30 | 24.09034 | 80.84202 | 31768 ft | 459 kts | 308° |
| 2026-04-26 18:31 | 24.13129 | 80.78838 | 31775 ft | 459 kts | 308° |
| 2026-04-26 18:31 | 24.17220 | 80.73454 | 31776 ft | 460 kts | 308° |
| 2026-04-26 18:32 | 24.21287 | 80.68100 | 31775 ft | 460 kts | 308° |
| 2026-04-26 18:32 | 24.25384 | 80.62712 | 31775 ft | 461 kts | 308° |
| 2026-04-26 18:33 | 24.29487 | 80.57317 | 31776 ft | 461 kts | 308° |
| 2026-04-26 18:33 | 24.33596 | 80.51908 | 31773 ft | 461 kts | 308° |
| 2026-04-26 18:34 | 24.37699 | 80.46499 | 31767 ft | 461 kts | 308° |
| 2026-04-26 18:34 | 24.41804 | 80.41080 | 31767 ft | 461 kts | 308° |
| 2026-04-26 18:35 | 24.45907 | 80.35657 | 31766 ft | 461 kts | 308° |
| 2026-04-26 18:35 | 24.50008 | 80.30235 | 31766 ft | 461 kts | 308° |
| 2026-04-26 18:36 | 24.54077 | 80.24846 | 31769 ft | 461 kts | 308° |
| 2026-04-26 18:36 | 24.58176 | 80.19410 | 31766 ft | 461 kts | 308° |
| 2026-04-26 18:37 | 24.62263 | 80.13988 | 31766 ft | 461 kts | 308° |
| 2026-04-26 18:37 | 24.66348 | 80.08557 | 31760 ft | 460 kts | 308° |
| 2026-04-26 18:38 | 24.70414 | 80.03125 | 31758 ft | 459 kts | 307° |
| 2026-04-26 18:38 | 24.74475 | 79.97698 | 31758 ft | 460 kts | 308° |
| 2026-04-26 18:39 | 24.78553 | 79.92256 | 31762 ft | 461 kts | 308° |
| 2026-04-26 18:39 | 24.82629 | 79.86800 | 31766 ft | 460 kts | 306° |
| 2026-04-26 18:40 | 24.86090 | 79.80904 | 31766 ft | 458 kts | 298° |
| 2026-04-26 18:40 | 24.89115 | 79.74730 | 31767 ft | 458 kts | 297° |
| 2026-04-26 18:41 | 24.92130 | 79.68543 | 31766 ft | 458 kts | 297° |
| 2026-04-26 18:41 | 24.95185 | 79.62380 | 31766 ft | 458 kts | 298° |
| 2026-04-26 18:42 | 24.98239 | 79.56260 | 31766 ft | 458 kts | 298° |
| 2026-04-26 18:42 | 25.01309 | 79.50109 | 31759 ft | 458 kts | 298° |
| 2026-04-26 18:43 | 25.04375 | 79.43958 | 31758 ft | 458 kts | 298° |
| 2026-04-26 18:43 | 25.07435 | 79.37801 | 31757 ft | 458 kts | 298° |
| 2026-04-26 18:44 | 25.10494 | 79.31637 | 31757 ft | 458 kts | 297° |
| 2026-04-26 18:44 | 25.13549 | 79.25472 | 31757 ft | 458 kts | 298° |
| 2026-04-26 18:45 | 25.16607 | 79.19302 | 31758 ft | 458 kts | 298° |
| 2026-04-26 18:45 | 25.19664 | 79.13121 | 31758 ft | 458 kts | 298° |
| 2026-04-26 18:46 | 25.22713 | 79.06945 | 31758 ft | 458 kts | 298° |
| 2026-04-26 18:46 | 25.25739 | 79.00784 | 31757 ft | 458 kts | 297° |
| 2026-04-26 18:47 | 25.28777 | 78.94588 | 31758 ft | 458 kts | 298° |
| 2026-04-26 18:47 | 25.31816 | 78.88401 | 31757 ft | 458 kts | 298° |
| 2026-04-26 18:48 | 25.34848 | 78.82233 | 31758 ft | 459 kts | 298° |
| 2026-04-26 18:48 | 25.37887 | 78.76034 | 31758 ft | 459 kts | 298° |
| 2026-04-26 18:49 | 25.40925 | 78.69831 | 31757 ft | 459 kts | 298° |
| 2026-04-26 18:49 | 25.43967 | 78.63617 | 31757 ft | 459 kts | 298° |
| 2026-04-26 18:50 | 25.47002 | 78.57407 | 31750 ft | 459 kts | 298° |
| 2026-04-26 18:50 | 25.50017 | 78.51228 | 31748 ft | 459 kts | 298° |
| 2026-04-26 18:51 | 25.53049 | 78.44999 | 31748 ft | 459 kts | 298° |
| 2026-04-26 18:51 | 25.56081 | 78.38768 | 31748 ft | 459 kts | 298° |
| 2026-04-26 18:52 | 25.58840 | 78.33695 | 31748 ft | 459 kts | 306° |
| 2026-04-26 18:52 | 25.61725 | 78.30281 | 31748 ft | 460 kts | 319° |
| 2026-04-26 18:52 | 25.64375 | 78.28292 | 31749 ft | 462 kts | 330° |
| 2026-04-26 18:53 | 25.70307 | 78.25457 | 31750 ft | 465 kts | 337° |
| 2026-04-26 18:53 | 25.76383 | 78.22960 | 31741 ft | 465 kts | 337° |
| 2026-04-26 18:54 | 25.82374 | 78.20383 | 31739 ft | 464 kts | 336° |
| 2026-04-26 18:54 | 25.88370 | 78.17709 | 31739 ft | 464 kts | 336° |
| 2026-04-26 18:55 | 25.94358 | 78.15017 | 31739 ft | 464 kts | 336° |
| 2026-04-26 18:55 | 26.00346 | 78.12321 | 31742 ft | 464 kts | 336° |
| 2026-04-26 18:56 | 26.06323 | 78.09628 | 31748 ft | 464 kts | 336° |
| 2026-04-26 18:56 | 26.12310 | 78.06932 | 31748 ft | 464 kts | 336° |
| 2026-04-26 18:57 | 26.17281 | 78.04691 | 31749 ft | 464 kts | 336° |
| 2026-04-26 18:57 | 26.24230 | 78.01555 | 31741 ft | 464 kts | 336° |
| 2026-04-26 18:58 | 26.30222 | 77.98846 | 31739 ft | 464 kts | 336° |
| 2026-04-26 18:58 | 26.36203 | 77.96139 | 31739 ft | 464 kts | 336° |
| 2026-04-26 18:59 | 26.42197 | 77.93424 | 31739 ft | 464 kts | 336° |
| 2026-04-26 18:59 | 26.48174 | 77.90702 | 31729 ft | 464 kts | 335° |
| 2026-04-26 19:00 | 26.54176 | 77.88004 | 31722 ft | 464 kts | 336° |
| 2026-04-26 19:00 | 26.60151 | 77.85358 | 31715 ft | 464 kts | 336° |
| 2026-04-26 19:01 | 26.66159 | 77.82705 | 31706 ft | 464 kts | 336° |
| 2026-04-26 19:01 | 26.72166 | 77.80046 | 31697 ft | 464 kts | 336° |
| 2026-04-26 19:02 | 26.78168 | 77.77382 | 31688 ft | 464 kts | 336° |
| 2026-04-26 19:02 | 26.83161 | 77.75169 | 31683 ft | 464 kts | 336° |
| 2026-04-26 19:03 | 26.90140 | 77.72062 | 31683 ft | 464 kts | 336° |
| 2026-04-26 19:03 | 26.96137 | 77.69391 | 31679 ft | 463 kts | 336° |
| 2026-04-26 19:04 | 27.02132 | 77.66718 | 31674 ft | 463 kts | 336° |
| 2026-04-26 19:04 | 27.08116 | 77.64048 | 31680 ft | 463 kts | 336° |
| 2026-04-26 19:05 | 27.16993 | 77.60079 | 31668 ft | 464 kts | 336° |
| 2026-04-26 19:06 | 27.23089 | 77.57637 | 31672 ft | 465 kts | 339° |
| 2026-04-26 19:06 | 27.29257 | 77.55435 | 31679 ft | 465 kts | 340° |
| 2026-04-26 19:07 | 27.35399 | 77.53263 | 31669 ft | 465 kts | 340° |
| 2026-04-26 19:07 | 27.41565 | 77.51059 | 31666 ft | 465 kts | 340° |
| 2026-04-26 19:08 | 27.47722 | 77.48843 | 31681 ft | 465 kts | 339° |
| 2026-04-26 19:08 | 27.53884 | 77.46617 | 31684 ft | 464 kts | 339° |
| 2026-04-26 19:09 | 27.60041 | 77.44391 | 31684 ft | 464 kts | 339° |
| 2026-04-26 19:09 | 27.66200 | 77.42161 | 31683 ft | 464 kts | 339° |
| 2026-04-26 19:10 | 27.72346 | 77.39934 | 31692 ft | 464 kts | 339° |
| 2026-04-26 19:10 | 27.78494 | 77.37705 | 31692 ft | 464 kts | 339° |
| 2026-04-26 19:11 | 27.84638 | 77.35474 | 31693 ft | 464 kts | 339° |
| 2026-04-26 19:11 | 27.90790 | 77.33238 | 31701 ft | 464 kts | 339° |
| 2026-04-26 19:12 | 27.96892 | 77.31018 | 31708 ft | 464 kts | 339° |
| 2026-04-26 19:12 | 28.03046 | 77.28772 | 31711 ft | 464 kts | 339° |
| 2026-04-26 19:13 | 28.09193 | 77.26529 | 31712 ft | 464 kts | 339° |
| 2026-04-26 19:13 | 28.15342 | 77.24284 | 31720 ft | 464 kts | 339° |
| 2026-04-26 19:14 | 28.21485 | 77.22037 | 31720 ft | 464 kts | 339° |
| 2026-04-26 19:14 | 28.27626 | 77.19788 | 31721 ft | 464 kts | 339° |
| 2026-04-26 19:15 | 28.33769 | 77.17535 | 31722 ft | 464 kts | 339° |
| 2026-04-26 19:15 | 28.39870 | 77.15288 | 31723 ft | 464 kts | 339° |
| 2026-04-26 19:16 | 28.46014 | 77.13025 | 31719 ft | 464 kts | 339° |
| 2026-04-26 19:16 | 28.52044 | 77.10469 | 31719 ft | 461 kts | 331° |
| 2026-04-26 19:17 | 28.57263 | 77.06364 | 31719 ft | 455 kts | 314° |
| 2026-04-26 19:17 | 28.61101 | 77.00693 | 31721 ft | 453 kts | 299° |
| 2026-04-26 19:18 | 28.63508 | 76.95389 | 31722 ft | 454 kts | 295° |
| 2026-04-26 19:18 | 28.66724 | 76.87857 | 31720 ft | 454 kts | 296° |
| 2026-04-26 19:19 | 28.69562 | 76.81434 | 31720 ft | 454 kts | 296° |
| 2026-04-26 19:19 | 28.71970 | 76.76070 | 31720 ft | 454 kts | 296° |
| 2026-04-26 19:20 | 28.74847 | 76.69676 | 31720 ft | 454 kts | 296° |
| 2026-04-26 19:20 | 28.77722 | 76.63275 | 31722 ft | 454 kts | 296° |
| 2026-04-26 19:21 | 28.80594 | 76.56873 | 31720 ft | 454 kts | 296° |
| 2026-04-26 19:21 | 28.83467 | 76.50454 | 31720 ft | 454 kts | 296° |
| 2026-04-26 19:22 | 28.86324 | 76.44061 | 31727 ft | 455 kts | 296° |
| 2026-04-26 19:22 | 28.89194 | 76.37628 | 31732 ft | 455 kts | 296° |
| 2026-04-26 19:23 | 28.92065 | 76.31182 | 31728 ft | 454 kts | 296° |
| 2026-04-26 19:23 | 28.94926 | 76.24747 | 31731 ft | 454 kts | 296° |
| 2026-04-26 19:24 | 28.97767 | 76.18345 | 31730 ft | 455 kts | 296° |
| 2026-04-26 19:24 | 29.02055 | 76.08610 | 31732 ft | 455 kts | 296° |
| 2026-04-26 19:25 | 29.04409 | 76.03266 | 31728 ft | 456 kts | 296° |
| 2026-04-26 19:25 | 29.07730 | 75.95730 | 31728 ft | 457 kts | 296° |
| 2026-04-26 19:26 | 29.10593 | 75.89238 | 31729 ft | 457 kts | 296° |
| 2026-04-26 19:26 | 29.13453 | 75.82741 | 31728 ft | 458 kts | 296° |
| 2026-04-26 19:27 | 29.16316 | 75.76224 | 31727 ft | 458 kts | 296° |
| 2026-04-26 19:27 | 29.19229 | 75.69742 | 31721 ft | 458 kts | 296° |
| 2026-04-26 19:28 | 29.22157 | 75.63317 | 31720 ft | 458 kts | 297° |
| 2026-04-26 19:28 | 29.25107 | 75.56852 | 31720 ft | 458 kts | 297° |
| 2026-04-26 19:29 | 29.28059 | 75.50368 | 31720 ft | 458 kts | 297° |
| 2026-04-26 19:29 | 29.31014 | 75.43900 | 31720 ft | 458 kts | 297° |
| 2026-04-26 19:30 | 29.34111 | 75.37511 | 31719 ft | 459 kts | 302° |
| 2026-04-26 19:30 | 29.37485 | 75.32810 | 31720 ft | 461 kts | 315° |
| 2026-04-26 19:31 | 29.40869 | 75.29856 | 31722 ft | 464 kts | 327° |
| 2026-04-26 19:31 | 29.43762 | 75.28174 | 31720 ft | 467 kts | 335° |
| 2026-04-26 19:31 | 29.50090 | 75.26362 | 31721 ft | 474 kts | 352° |
| 2026-04-26 19:32 | 29.56715 | 75.26595 | 31721 ft | 480 kts | 4° |
| 2026-04-26 19:32 | 29.63340 | 75.27661 | 31720 ft | 480 kts | 5° |
| 2026-04-26 19:33 | 29.69963 | 75.28725 | 31720 ft | 480 kts | 4° |
| 2026-04-26 19:33 | 29.76594 | 75.29694 | 31720 ft | 480 kts | 4° |
| 2026-04-26 19:34 | 29.83228 | 75.30624 | 31720 ft | 480 kts | 4° |
| 2026-04-26 19:34 | 29.89870 | 75.30869 | 31720 ft | 475 kts | 352° |
| 2026-04-26 19:35 | 29.96403 | 75.29861 | 31720 ft | 474 kts | 348° |
| 2026-04-26 19:35 | 30.02875 | 75.28643 | 31720 ft | 474 kts | 348° |
| 2026-04-26 19:36 | 30.08337 | 75.27682 | 31720 ft | 474 kts | 349° |
| 2026-04-26 19:36 | 30.15936 | 75.26417 | 31720 ft | 475 kts | 349° |
| 2026-04-26 19:37 | 30.22363 | 75.25366 | 31372 ft | 451 kts | 349° |
| 2026-04-26 19:37 | 30.25437 | 75.24864 | 30860 ft | 441 kts | 349° |
| 2026-04-26 19:37 | 30.28470 | 75.24365 | 30217 ft | 440 kts | 349° |
| 2026-04-26 19:38 | 30.31509 | 75.23860 | 29563 ft | 442 kts | 349° |
| 2026-04-26 19:38 | 30.34565 | 75.23351 | 28937 ft | 445 kts | 349° |
| 2026-04-26 19:38 | 30.37635 | 75.22840 | 28298 ft | 446 kts | 349° |
| 2026-04-26 19:38 | 30.40724 | 75.22327 | 27650 ft | 448 kts | 349° |
| 2026-04-26 19:39 | 30.43813 | 75.21815 | 27000 ft | 449 kts | 350° |
| 2026-04-26 19:39 | 30.46868 | 75.21309 | 26362 ft | 450 kts | 350° |
| 2026-04-26 19:39 | 30.49976 | 75.20792 | 25717 ft | 451 kts | 350° |
| 2026-04-26 19:39 | 30.53089 | 75.20275 | 25068 ft | 453 kts | 350° |
| 2026-04-26 19:40 | 30.56197 | 75.19761 | 24417 ft | 450 kts | 350° |
| 2026-04-26 19:40 | 30.59283 | 75.19250 | 23748 ft | 446 kts | 350° |
| 2026-04-26 19:40 | 30.62341 | 75.18743 | 23084 ft | 441 kts | 350° |
| 2026-04-26 19:40 | 30.65365 | 75.18243 | 22430 ft | 437 kts | 350° |
| 2026-04-26 19:41 | 30.68359 | 75.17745 | 21783 ft | 432 kts | 350° |
| 2026-04-26 19:41 | 30.71316 | 75.17252 | 21139 ft | 427 kts | 350° |
| 2026-04-26 19:41 | 30.74246 | 75.16761 | 20520 ft | 423 kts | 350° |
| 2026-04-26 19:41 | 30.76166 | 75.16438 | 20101 ft | 420 kts | 350° |
| 2026-04-26 19:42 | 30.79957 | 75.15546 | 19271 ft | 411 kts | 339° |
| 2026-04-26 19:42 | 30.82478 | 75.14056 | 18659 ft | 403 kts | 323° |
| 2026-04-26 19:42 | 30.84636 | 75.11992 | 18063 ft | 400 kts | 316° |
| 2026-04-26 19:42 | 30.86605 | 75.09755 | 17469 ft | 392 kts | 314° |
| 2026-04-26 19:43 | 30.88529 | 75.07485 | 16866 ft | 392 kts | 314° |
| 2026-04-26 19:43 | 30.90453 | 75.05240 | 16284 ft | 390 kts | 314° |
| 2026-04-26 19:43 | 30.92381 | 75.03034 | 15709 ft | 387 kts | 315° |
| 2026-04-26 19:43 | 30.94311 | 75.00864 | 15119 ft | 385 kts | 315° |
| 2026-04-26 19:44 | 30.96245 | 74.98714 | 14558 ft | 382 kts | 316° |
| 2026-04-26 19:44 | 30.98162 | 74.96596 | 14009 ft | 379 kts | 316° |
| 2026-04-26 19:44 | 31.00069 | 74.94494 | 13444 ft | 377 kts | 316° |
| 2026-04-26 19:44 | 31.01926 | 74.92447 | 12909 ft | 375 kts | 316° |
| 2026-04-26 19:45 | 31.03812 | 74.90367 | 12329 ft | 372 kts | 316° |
| 2026-04-26 19:45 | 31.05687 | 74.88301 | 11770 ft | 370 kts | 316° |
| 2026-04-26 19:45 | 31.07554 | 74.86243 | 11253 ft | 367 kts | 316° |
| 2026-04-26 19:45 | 31.09400 | 74.84207 | 10922 ft | 365 kts | 316° |
| 2026-04-26 19:46 | 31.11205 | 74.82215 | 10797 ft | 341 kts | 316° |
| 2026-04-26 19:46 | 31.12839 | 74.80413 | 10663 ft | 305 kts | 316° |
| 2026-04-26 19:46 | 31.14332 | 74.78766 | 10571 ft | 290 kts | 316° |
| 2026-04-26 19:46 | 31.15781 | 74.77162 | 10469 ft | 286 kts | 316° |
| 2026-04-26 19:47 | 31.17230 | 74.75560 | 10356 ft | 285 kts | 316° |
| 2026-04-26 19:47 | 31.18183 | 74.74504 | 10221 ft | 285 kts | 316° |
| 2026-04-26 19:47 | 31.20105 | 74.72379 | 9656 ft | 284 kts | 316° |
| 2026-04-26 19:47 | 31.21528 | 74.70802 | 9141 ft | 280 kts | 316° |
| 2026-04-26 19:48 | 31.22937 | 74.69243 | 8648 ft | 278 kts | 316° |
| 2026-04-26 19:48 | 31.24312 | 74.67719 | 8168 ft | 275 kts | 316° |
| 2026-04-26 19:48 | 31.25709 | 74.66167 | 7682 ft | 273 kts | 316° |
| 2026-04-26 19:48 | 31.27082 | 74.64644 | 7246 ft | 270 kts | 316° |
| 2026-04-26 19:49 | 31.28425 | 74.63150 | 6811 ft | 270 kts | 316° |
| 2026-04-26 19:49 | 31.29774 | 74.61646 | 6380 ft | 267 kts | 316° |
| 2026-04-26 19:49 | 31.31119 | 74.60154 | 5943 ft | 265 kts | 316° |
| 2026-04-26 19:49 | 31.32454 | 74.58673 | 5520 ft | 263 kts | 316° |
| 2026-04-26 19:50 | 31.33701 | 74.57115 | 5128 ft | 262 kts | 306° |
| 2026-04-26 19:50 | 31.34479 | 74.55209 | 4754 ft | 260 kts | 286° |
| 2026-04-26 19:50 | 31.34791 | 74.53131 | 4367 ft | 257 kts | 279° |
| 2026-04-26 19:50 | 31.34988 | 74.51085 | 4021 ft | 250 kts | 278° |
| 2026-04-26 19:51 | 31.35169 | 74.49080 | 3669 ft | 244 kts | 279° |
| 2026-04-26 19:51 | 31.35345 | 74.47137 | 3373 ft | 237 kts | 279° |
| 2026-04-26 19:51 | 31.35518 | 74.45273 | 3230 ft | 220 kts | 279° |
| 2026-04-26 19:51 | 31.35699 | 74.43594 | 3154 ft | 196 kts | 285° |
| 2026-04-26 19:52 | 31.36151 | 74.42124 | 3013 ft | 187 kts | 303° |
| 2026-04-26 19:52 | 31.36949 | 74.41069 | 2718 ft | 167 kts | 325° |
| 2026-04-26 19:52 | 31.38003 | 74.40512 | 2587 ft | 168 kts | 351° |
| 2026-04-26 19:52 | 31.39167 | 74.40413 | 2648 ft | 166 kts | 354° |
| 2026-04-26 19:53 | 31.40285 | 74.40329 | 2624 ft | 158 kts | 355° |
| 2026-04-26 19:53 | 31.41382 | 74.40277 | 2564 ft | 158 kts | 357° |
| 2026-04-26 19:53 | 31.42476 | 74.40284 | 2329 ft | 157 kts | 358° |
| 2026-04-26 19:53 | 31.43579 | 74.40297 | 2131 ft | 159 kts | 359° |
| 2026-04-26 19:54 | 31.44696 | 74.40312 | 1891 ft | 162 kts | 0° |
| 2026-04-26 19:54 | 31.45829 | 74.40330 | 1693 ft | 163 kts | 0° |
| 2026-04-26 19:54 | 31.46965 | 74.40375 | 1461 ft | 163 kts | 0° |
| 2026-04-26 19:54 | 31.48102 | 74.40388 | 1256 ft | 163 kts | 0° |
| 2026-04-26 19:55 | 31.49229 | 74.40411 | 1025 ft | 162 kts | 0° |
| 2026-04-26 19:55 | 31.50355 | 74.40427 | 817 ft | 161 kts | 1° |
| 2026-04-26 19:55 | 31.51426 | 74.40440 | 723 ft | 135 kts | 2° |
| 2026-04-26 19:55 | 31.52193 | 74.40459 | 725 ft | 89 kts | 1° |
| 2026-04-26 19:56 | 31.52660 | 74.40467 | 725 ft | 36 kts | 1° |
| 2026-04-26 19:56 | 31.52796 | 74.40531 | 725 ft | 13 kts | 70° |
| 2026-04-26 19:56 | 31.52802 | 74.40607 | 725 ft | 6 kts | 93° |
| 2026-04-26 19:56 | 31.52795 | 74.40632 | 725 ft | 3 kts | 117° |
| 2026-04-26 19:57 | 31.52751 | 74.40666 | 725 ft | 12 kts | 164° |
| 2026-04-26 19:57 | 31.52685 | 74.40675 | 725 ft | 9 kts | 179° |
| 2026-04-26 19:57 | 31.52602 | 74.40675 | 725 ft | 13 kts | 180° |
| 2026-04-26 19:57 | 31.52518 | 74.40675 | 724 ft | 11 kts | 180° |
| 2026-04-26 19:58 | 31.52450 | 74.40681 | 727 ft | 9 kts | 164° |
| 2026-04-26 19:58 | 31.52412 | 74.40727 | 726 ft | 10 kts | 113° |
| 2026-04-26 19:58 | 31.52396 | 74.40807 | 727 ft | 10 kts | 114° |
| 2026-04-26 19:58 | 31.52363 | 74.40838 | 724 ft | 7 kts | 155° |
| 2026-04-26 19:59 | 31.52297 | 74.40844 | 726 ft | 13 kts | 180° |
| 2026-04-26 19:59 | 31.52196 | 74.40843 | 724 ft | 14 kts | 180° |
| 2026-04-26 19:59 | 31.52100 | 74.40842 | 726 ft | 15 kts | 181° |
| 2026-04-26 19:59 | 31.51963 | 74.40840 | 724 ft | 21 kts | 181° |
| 2026-04-26 20:00 | 31.51831 | 74.40838 | 724 ft | 13 kts | 181° |
| 2026-04-26 20:00 | 31.51773 | 74.40860 | 723 ft | 2 kts | 133° |
| 2026-04-26 20:00 | 31.51763 | 74.40899 | 725 ft | 8 kts | 97° |
| 2026-04-26 20:00 | 31.51763 | 74.40942 | 723 ft | 4 kts | 91° |
| 2026-04-26 20:01 | 31.51762 | 74.40947 | 725 ft | 0 kts | 91° |